PGT1183 LTFJ-EGBB
Flight info
| Callsign | PGT1183 |
|---|---|
| Flight time | 3h 53m |
| Altitude | 36000 |
| Route | VADEN DCT BAKLO DCT XANEX DCT UTEKA DCT TONDO DCT GITAS DCT TEKNO DCT BEGLA DCT FMD DCT DITIS DCT OKG DCT VELIS DCT SWALM DCT TIVUN DCT TORNU DCT BATAK DCT GALSO Q63 ERING L179 LAM L610 HEMEL |
| Aircraft | A320/M-SDE3FGHIRWY/LB1 |
Departure
| Time | 2026-04-28 10:02 |
|---|---|
| Airport | Istanbul Sabiha Gökçen International Airport (LTFJ) |
Arrival
| Time | 2026-04-28 13:56 |
|---|---|
| Airport | Birmingham Airport (EGBB) |
| Time | Latitude | Longitude | Altitude | Speed | Heading |
|---|---|---|---|---|---|
| 2026-04-28 09:41 | 40.90608 | 29.31631 | 321 ft | 0 kts | 334° |
| 2026-04-28 09:50 | 40.90600 | 29.31636 | 319 ft | 4 kts | 333° |
| 2026-04-28 09:51 | 40.90577 | 29.31653 | 319 ft | 4 kts | 325° |
| 2026-04-28 09:51 | 40.90556 | 29.31675 | 321 ft | 4 kts | 307° |
| 2026-04-28 09:51 | 40.90547 | 29.31704 | 318 ft | 3 kts | 248° |
| 2026-04-28 09:51 | 40.90548 | 29.31707 | 320 ft | 0 kts | 244° |
| 2026-04-28 09:54 | 40.90548 | 29.31706 | 320 ft | 1 kts | 244° |
| 2026-04-28 09:54 | 40.90541 | 29.31687 | 320 ft | 4 kts | 245° |
| 2026-04-28 09:54 | 40.90525 | 29.31643 | 321 ft | 5 kts | 244° |
| 2026-04-28 09:55 | 40.90511 | 29.31605 | 319 ft | 5 kts | 244° |
| 2026-04-28 09:55 | 40.90487 | 29.31539 | 321 ft | 8 kts | 244° |
| 2026-04-28 09:55 | 40.90464 | 29.31476 | 321 ft | 7 kts | 244° |
| 2026-04-28 09:55 | 40.90432 | 29.31434 | 321 ft | 8 kts | 190° |
| 2026-04-28 09:56 | 40.90365 | 29.31468 | 321 ft | 10 kts | 153° |
| 2026-04-28 09:56 | 40.90301 | 29.31497 | 321 ft | 10 kts | 185° |
| 2026-04-28 09:56 | 40.90268 | 29.31466 | 319 ft | 8 kts | 232° |
| 2026-04-28 09:56 | 40.90233 | 29.31379 | 320 ft | 16 kts | 244° |
| 2026-04-28 09:57 | 40.90184 | 29.31243 | 321 ft | 18 kts | 244° |
| 2026-04-28 09:57 | 40.90127 | 29.31090 | 321 ft | 18 kts | 244° |
| 2026-04-28 09:57 | 40.90073 | 29.30940 | 321 ft | 19 kts | 244° |
| 2026-04-28 09:57 | 40.90015 | 29.30783 | 321 ft | 20 kts | 244° |
| 2026-04-28 09:58 | 40.89957 | 29.30625 | 321 ft | 20 kts | 244° |
| 2026-04-28 09:58 | 40.89897 | 29.30463 | 320 ft | 19 kts | 244° |
| 2026-04-28 09:58 | 40.89843 | 29.30315 | 320 ft | 18 kts | 245° |
| 2026-04-28 09:58 | 40.89789 | 29.30171 | 320 ft | 19 kts | 244° |
| 2026-04-28 09:59 | 40.89732 | 29.30017 | 321 ft | 19 kts | 244° |
| 2026-04-28 09:59 | 40.89676 | 29.29863 | 320 ft | 19 kts | 244° |
| 2026-04-28 09:59 | 40.89619 | 29.29706 | 319 ft | 20 kts | 244° |
| 2026-04-28 09:59 | 40.89560 | 29.29548 | 320 ft | 18 kts | 244° |
| 2026-04-28 10:00 | 40.89508 | 29.29404 | 321 ft | 17 kts | 244° |
| 2026-04-28 10:00 | 40.89457 | 29.29277 | 320 ft | 14 kts | 230° |
| 2026-04-28 10:00 | 40.89372 | 29.29266 | 320 ft | 13 kts | 156° |
| 2026-04-28 10:00 | 40.89305 | 29.29317 | 321 ft | 9 kts | 136° |
| 2026-04-28 10:01 | 40.89290 | 29.29382 | 322 ft | 8 kts | 78° |
| 2026-04-28 10:01 | 40.89297 | 29.29400 | 321 ft | 0 kts | 64° |
| 2026-04-28 10:01 | 40.89381 | 29.29628 | 322 ft | 63 kts | 63° |
| 2026-04-28 10:02 | 40.89667 | 29.30398 | 322 ft | 121 kts | 64° |
| 2026-04-28 10:02 | 40.90103 | 29.31591 | 332 ft | 164 kts | 64° |
| 2026-04-28 10:02 | 40.90585 | 29.32935 | 1008 ft | 160 kts | 64° |
| 2026-04-28 10:02 | 40.91061 | 29.34271 | 1721 ft | 162 kts | 63° |
| 2026-04-28 10:03 | 40.91560 | 29.35629 | 2361 ft | 171 kts | 62° |
| 2026-04-28 10:03 | 40.92119 | 29.37127 | 2687 ft | 192 kts | 63° |
| 2026-04-28 10:03 | 40.92722 | 29.38755 | 2968 ft | 192 kts | 63° |
| 2026-04-28 10:03 | 40.93333 | 29.40423 | 3202 ft | 215 kts | 63° |
| 2026-04-28 10:04 | 40.94031 | 29.42314 | 3416 ft | 239 kts | 64° |
| 2026-04-28 10:04 | 40.94789 | 29.44360 | 3661 ft | 255 kts | 63° |
| 2026-04-28 10:04 | 40.95576 | 29.46491 | 4435 ft | 260 kts | 63° |
| 2026-04-28 10:04 | 40.96375 | 29.48662 | 5275 ft | 265 kts | 63° |
| 2026-04-28 10:05 | 40.97185 | 29.50874 | 6048 ft | 270 kts | 63° |
| 2026-04-28 10:05 | 40.98012 | 29.53138 | 6818 ft | 276 kts | 62° |
| 2026-04-28 10:05 | 40.98854 | 29.55440 | 7533 ft | 280 kts | 62° |
| 2026-04-28 10:05 | 40.99715 | 29.57780 | 8296 ft | 284 kts | 60° |
| 2026-04-28 10:06 | 41.00928 | 29.59815 | 9025 ft | 285 kts | 36° |
| 2026-04-28 10:06 | 41.02695 | 29.60959 | 9757 ft | 285 kts | 10° |
| 2026-04-28 10:06 | 41.04661 | 29.60981 | 10453 ft | 286 kts | 347° |
| 2026-04-28 10:06 | 41.06661 | 29.60294 | 10683 ft | 308 kts | 343° |
| 2026-04-28 10:07 | 41.08801 | 29.59479 | 10868 ft | 330 kts | 342° |
| 2026-04-28 10:07 | 41.11042 | 29.58606 | 11372 ft | 340 kts | 342° |
| 2026-04-28 10:07 | 41.13324 | 29.57719 | 12012 ft | 344 kts | 342° |
| 2026-04-28 10:07 | 41.15602 | 29.56841 | 12660 ft | 348 kts | 343° |
| 2026-04-28 10:08 | 41.17938 | 29.55947 | 13322 ft | 351 kts | 343° |
| 2026-04-28 10:08 | 41.20297 | 29.55047 | 13966 ft | 355 kts | 343° |
| 2026-04-28 10:08 | 41.22680 | 29.54145 | 14539 ft | 358 kts | 343° |
| 2026-04-28 10:08 | 41.25095 | 29.53275 | 15116 ft | 361 kts | 345° |
| 2026-04-28 10:09 | 41.27555 | 29.52522 | 15683 ft | 364 kts | 346° |
| 2026-04-28 10:09 | 41.30050 | 29.51840 | 16247 ft | 368 kts | 347° |
| 2026-04-28 10:09 | 41.32572 | 29.51181 | 16796 ft | 371 kts | 347° |
| 2026-04-28 10:09 | 41.35115 | 29.50511 | 17344 ft | 374 kts | 347° |
| 2026-04-28 10:10 | 41.37671 | 29.49818 | 17877 ft | 377 kts | 345° |
| 2026-04-28 10:10 | 41.40176 | 29.48762 | 18403 ft | 379 kts | 337° |
| 2026-04-28 10:10 | 41.42644 | 29.47497 | 18867 ft | 381 kts | 337° |
| 2026-04-28 10:10 | 41.45125 | 29.46228 | 19345 ft | 383 kts | 337° |
| 2026-04-28 10:11 | 41.47623 | 29.44950 | 19821 ft | 385 kts | 337° |
| 2026-04-28 10:11 | 41.50132 | 29.43664 | 20293 ft | 387 kts | 337° |
| 2026-04-28 10:11 | 41.52657 | 29.42366 | 20758 ft | 390 kts | 337° |
| 2026-04-28 10:11 | 41.55193 | 29.41060 | 21213 ft | 392 kts | 338° |
| 2026-04-28 10:12 | 41.57745 | 29.39747 | 21660 ft | 394 kts | 338° |
| 2026-04-28 10:12 | 41.60203 | 29.38141 | 22092 ft | 395 kts | 326° |
| 2026-04-28 10:12 | 41.62323 | 29.35814 | 22514 ft | 396 kts | 313° |
| 2026-04-28 10:12 | 41.63985 | 29.32886 | 22933 ft | 398 kts | 300° |
| 2026-04-28 10:13 | 41.65095 | 29.29498 | 23343 ft | 400 kts | 287° |
| 2026-04-28 10:13 | 41.65582 | 29.25823 | 23733 ft | 404 kts | 274° |
| 2026-04-28 10:13 | 41.65676 | 29.22048 | 24077 ft | 407 kts | 273° |
| 2026-04-28 10:13 | 41.65762 | 29.18259 | 24408 ft | 409 kts | 273° |
| 2026-04-28 10:14 | 41.65850 | 29.14443 | 24743 ft | 411 kts | 273° |
| 2026-04-28 10:14 | 41.65938 | 29.10622 | 25071 ft | 413 kts | 273° |
| 2026-04-28 10:14 | 41.66028 | 29.06769 | 25397 ft | 415 kts | 273° |
| 2026-04-28 10:14 | 41.66120 | 29.02915 | 25722 ft | 416 kts | 273° |
| 2026-04-28 10:15 | 41.66210 | 28.99030 | 26046 ft | 418 kts | 273° |
| 2026-04-28 10:15 | 41.66296 | 28.95136 | 26370 ft | 420 kts | 273° |
| 2026-04-28 10:15 | 41.66378 | 28.91221 | 26678 ft | 422 kts | 273° |
| 2026-04-28 10:15 | 41.66460 | 28.87293 | 27003 ft | 424 kts | 273° |
| 2026-04-28 10:16 | 41.66544 | 28.83352 | 27312 ft | 425 kts | 273° |
| 2026-04-28 10:16 | 41.66629 | 28.79386 | 27618 ft | 427 kts | 273° |
| 2026-04-28 10:16 | 41.66712 | 28.75408 | 27921 ft | 429 kts | 273° |
| 2026-04-28 10:16 | 41.66792 | 28.71418 | 28220 ft | 430 kts | 273° |
| 2026-04-28 10:17 | 41.66866 | 28.67407 | 28504 ft | 432 kts | 273° |
| 2026-04-28 10:17 | 41.66939 | 28.63382 | 28783 ft | 434 kts | 273° |
| 2026-04-28 10:17 | 41.67013 | 28.59341 | 29043 ft | 436 kts | 273° |
| 2026-04-28 10:17 | 41.67077 | 28.55280 | 29311 ft | 437 kts | 272° |
| 2026-04-28 10:18 | 41.67125 | 28.51213 | 29581 ft | 439 kts | 272° |
| 2026-04-28 10:18 | 41.67165 | 28.47124 | 29837 ft | 440 kts | 272° |
| 2026-04-28 10:18 | 41.67203 | 28.43020 | 30080 ft | 442 kts | 272° |
| 2026-04-28 10:18 | 41.67242 | 28.38905 | 30354 ft | 442 kts | 272° |
| 2026-04-28 10:19 | 41.67283 | 28.34799 | 30673 ft | 441 kts | 272° |
| 2026-04-28 10:19 | 41.67326 | 28.30704 | 30996 ft | 440 kts | 272° |
| 2026-04-28 10:19 | 41.67364 | 28.26679 | 31307 ft | 438 kts | 272° |
| 2026-04-28 10:19 | 41.67401 | 28.22607 | 31614 ft | 437 kts | 272° |
| 2026-04-28 10:20 | 41.67434 | 28.18543 | 31924 ft | 436 kts | 272° |
| 2026-04-28 10:20 | 41.67466 | 28.14496 | 32235 ft | 435 kts | 272° |
| 2026-04-28 10:20 | 41.67499 | 28.10449 | 32542 ft | 434 kts | 272° |
| 2026-04-28 10:20 | 41.67754 | 28.06449 | 32839 ft | 431 kts | 281° |
| 2026-04-28 10:21 | 41.68491 | 28.02582 | 33149 ft | 428 kts | 290° |
| 2026-04-28 10:21 | 41.69674 | 27.98948 | 33456 ft | 426 kts | 299° |
| 2026-04-28 10:21 | 41.71231 | 27.95573 | 33749 ft | 425 kts | 303° |
| 2026-04-28 10:21 | 41.72861 | 27.92219 | 34040 ft | 424 kts | 303° |
| 2026-04-28 10:22 | 41.74463 | 27.88905 | 34324 ft | 423 kts | 303° |
| 2026-04-28 10:22 | 41.76054 | 27.85594 | 34579 ft | 423 kts | 303° |
| 2026-04-28 10:22 | 41.77643 | 27.82286 | 34801 ft | 422 kts | 303° |
| 2026-04-28 10:22 | 41.79212 | 27.79029 | 35022 ft | 422 kts | 303° |
| 2026-04-28 10:23 | 41.80803 | 27.75726 | 35245 ft | 421 kts | 302° |
| 2026-04-28 10:23 | 41.82390 | 27.72422 | 35456 ft | 421 kts | 302° |
| 2026-04-28 10:23 | 41.83971 | 27.69122 | 35643 ft | 421 kts | 302° |
| 2026-04-28 10:23 | 41.85553 | 27.65815 | 35845 ft | 421 kts | 302° |
| 2026-04-28 10:24 | 41.87132 | 27.62514 | 36042 ft | 420 kts | 302° |
| 2026-04-28 10:24 | 41.88711 | 27.59209 | 36142 ft | 421 kts | 302° |
| 2026-04-28 10:24 | 41.91867 | 27.52598 | 36155 ft | 420 kts | 302° |
| 2026-04-28 10:25 | 41.95009 | 27.45995 | 36154 ft | 420 kts | 302° |
| 2026-04-28 10:25 | 41.98154 | 27.39387 | 36149 ft | 419 kts | 302° |
| 2026-04-28 10:26 | 42.01287 | 27.32785 | 36153 ft | 419 kts | 302° |
| 2026-04-28 10:26 | 42.04414 | 27.26166 | 36148 ft | 419 kts | 302° |
| 2026-04-28 10:27 | 42.07769 | 27.19782 | 36154 ft | 419 kts | 311° |
| 2026-04-28 10:27 | 42.11664 | 27.13951 | 36146 ft | 419 kts | 311° |
| 2026-04-28 10:28 | 42.15555 | 27.08118 | 36153 ft | 418 kts | 311° |
| 2026-04-28 10:29 | 42.21367 | 26.99354 | 36149 ft | 418 kts | 310° |
| 2026-04-28 10:29 | 42.25234 | 26.93499 | 36150 ft | 417 kts | 310° |
| 2026-04-28 10:30 | 42.29095 | 26.87651 | 36157 ft | 417 kts | 310° |
| 2026-04-28 10:30 | 42.32929 | 26.81837 | 36154 ft | 417 kts | 310° |
| 2026-04-28 10:31 | 42.36810 | 26.75944 | 36158 ft | 417 kts | 310° |
| 2026-04-28 10:31 | 42.40632 | 26.70125 | 36154 ft | 417 kts | 310° |
| 2026-04-28 10:32 | 42.44473 | 26.64257 | 36158 ft | 416 kts | 310° |
| 2026-04-28 10:32 | 42.48315 | 26.58377 | 36152 ft | 416 kts | 310° |
| 2026-04-28 10:33 | 42.52150 | 26.52502 | 36159 ft | 416 kts | 310° |
| 2026-04-28 10:33 | 42.55510 | 26.46160 | 36146 ft | 414 kts | 297° |
| 2026-04-28 10:34 | 42.58221 | 26.39264 | 36143 ft | 414 kts | 297° |
| 2026-04-28 10:34 | 42.60941 | 26.32374 | 36136 ft | 414 kts | 297° |
| 2026-04-28 10:35 | 42.63664 | 26.25478 | 36144 ft | 414 kts | 297° |
| 2026-04-28 10:35 | 42.66383 | 26.18576 | 36134 ft | 414 kts | 297° |
| 2026-04-28 10:36 | 42.69096 | 26.11666 | 36132 ft | 414 kts | 297° |
| 2026-04-28 10:36 | 42.71805 | 26.04751 | 36128 ft | 414 kts | 297° |
| 2026-04-28 10:37 | 42.74497 | 25.97837 | 36130 ft | 414 kts | 297° |
| 2026-04-28 10:37 | 42.77185 | 25.90912 | 36122 ft | 413 kts | 297° |
| 2026-04-28 10:38 | 42.79872 | 25.83994 | 36122 ft | 413 kts | 297° |
| 2026-04-28 10:38 | 42.82555 | 25.77066 | 36117 ft | 413 kts | 297° |
| 2026-04-28 10:39 | 42.85236 | 25.70143 | 36119 ft | 413 kts | 297° |
| 2026-04-28 10:39 | 42.87911 | 25.63225 | 36116 ft | 413 kts | 297° |
| 2026-04-28 10:40 | 42.90575 | 25.56291 | 36113 ft | 412 kts | 297° |
| 2026-04-28 10:40 | 42.93233 | 25.49360 | 36115 ft | 412 kts | 297° |
| 2026-04-28 10:41 | 42.95868 | 25.42474 | 36114 ft | 412 kts | 297° |
| 2026-04-28 10:41 | 42.98517 | 25.35534 | 36111 ft | 412 kts | 297° |
| 2026-04-28 10:42 | 43.00736 | 25.29723 | 36115 ft | 412 kts | 297° |
| 2026-04-28 10:42 | 43.03804 | 25.21652 | 36113 ft | 412 kts | 296° |
| 2026-04-28 10:43 | 43.06430 | 25.14702 | 36115 ft | 411 kts | 296° |
| 2026-04-28 10:43 | 43.08634 | 25.08875 | 36114 ft | 411 kts | 296° |
| 2026-04-28 10:44 | 43.11241 | 25.01966 | 36120 ft | 411 kts | 296° |
| 2026-04-28 10:44 | 43.13799 | 24.94968 | 36117 ft | 411 kts | 294° |
| 2026-04-28 10:45 | 43.16086 | 24.87796 | 36115 ft | 411 kts | 292° |
| 2026-04-28 10:45 | 43.18290 | 24.80575 | 36117 ft | 411 kts | 292° |
| 2026-04-28 10:46 | 43.20529 | 24.73371 | 36117 ft | 411 kts | 293° |
| 2026-04-28 10:46 | 43.22798 | 24.66187 | 36119 ft | 411 kts | 293° |
| 2026-04-28 10:47 | 43.25072 | 24.59001 | 36124 ft | 411 kts | 293° |
| 2026-04-28 10:47 | 43.27333 | 24.51804 | 36121 ft | 411 kts | 292° |
| 2026-04-28 10:48 | 43.29581 | 24.44596 | 36130 ft | 411 kts | 292° |
| 2026-04-28 10:48 | 43.31826 | 24.37387 | 36128 ft | 411 kts | 292° |
| 2026-04-28 10:49 | 43.34070 | 24.30179 | 36128 ft | 410 kts | 292° |
| 2026-04-28 10:49 | 43.36310 | 24.22970 | 36129 ft | 410 kts | 292° |
| 2026-04-28 10:50 | 43.38545 | 24.15754 | 36130 ft | 410 kts | 292° |
| 2026-04-28 10:50 | 43.40773 | 24.08541 | 36126 ft | 410 kts | 292° |
| 2026-04-28 10:51 | 43.42992 | 24.01315 | 36123 ft | 410 kts | 292° |
| 2026-04-28 10:51 | 43.45204 | 23.94084 | 36124 ft | 410 kts | 292° |
| 2026-04-28 10:52 | 43.47415 | 23.86844 | 36125 ft | 410 kts | 292° |
| 2026-04-28 10:52 | 43.49627 | 23.79598 | 36122 ft | 410 kts | 292° |
| 2026-04-28 10:53 | 43.51835 | 23.72354 | 36122 ft | 410 kts | 292° |
| 2026-04-28 10:53 | 43.54042 | 23.65095 | 36125 ft | 410 kts | 292° |
| 2026-04-28 10:54 | 43.56234 | 23.57835 | 36126 ft | 410 kts | 292° |
| 2026-04-28 10:54 | 43.58428 | 23.50565 | 36126 ft | 411 kts | 292° |
| 2026-04-28 10:55 | 43.60616 | 23.43284 | 36125 ft | 411 kts | 291° |
| 2026-04-28 10:55 | 43.62793 | 23.36000 | 36127 ft | 411 kts | 291° |
| 2026-04-28 10:56 | 43.64970 | 23.28712 | 36135 ft | 411 kts | 291° |
| 2026-04-28 10:56 | 43.67148 | 23.21411 | 36132 ft | 411 kts | 291° |
| 2026-04-28 10:57 | 43.69318 | 23.14117 | 36131 ft | 411 kts | 291° |
| 2026-04-28 10:57 | 43.71488 | 23.06801 | 36131 ft | 411 kts | 291° |
| 2026-04-28 10:58 | 43.73649 | 22.99483 | 36132 ft | 411 kts | 291° |
| 2026-04-28 10:58 | 43.75809 | 22.92148 | 36134 ft | 412 kts | 291° |
| 2026-04-28 10:59 | 43.77967 | 22.84816 | 36135 ft | 412 kts | 291° |
| 2026-04-28 10:59 | 43.80126 | 22.77476 | 36135 ft | 412 kts | 291° |
| 2026-04-28 11:00 | 43.82270 | 22.70130 | 36136 ft | 412 kts | 291° |
| 2026-04-28 11:00 | 43.84408 | 22.62773 | 36134 ft | 412 kts | 291° |
| 2026-04-28 11:01 | 43.86545 | 22.55409 | 36135 ft | 412 kts | 291° |
| 2026-04-28 11:01 | 43.88676 | 22.48049 | 36137 ft | 412 kts | 291° |
| 2026-04-28 11:02 | 43.90970 | 22.40783 | 36136 ft | 412 kts | 300° |
| 2026-04-28 11:02 | 43.94616 | 22.34648 | 36132 ft | 415 kts | 314° |
| 2026-04-28 11:03 | 43.98772 | 22.29080 | 36133 ft | 415 kts | 313° |
| 2026-04-28 11:03 | 44.02880 | 22.23520 | 36131 ft | 415 kts | 313° |
| 2026-04-28 11:04 | 44.07008 | 22.17917 | 36131 ft | 415 kts | 313° |
| 2026-04-28 11:04 | 44.11135 | 22.12309 | 36129 ft | 415 kts | 313° |
| 2026-04-28 11:05 | 44.15286 | 22.06665 | 36139 ft | 415 kts | 313° |
| 2026-04-28 11:05 | 44.19377 | 22.01078 | 36150 ft | 414 kts | 313° |
| 2026-04-28 11:06 | 44.23490 | 21.95459 | 36151 ft | 414 kts | 313° |
| 2026-04-28 11:06 | 44.27599 | 21.89845 | 36154 ft | 414 kts | 313° |
| 2026-04-28 11:07 | 44.31706 | 21.84225 | 36154 ft | 413 kts | 313° |
| 2026-04-28 11:07 | 44.35804 | 21.78592 | 36156 ft | 413 kts | 313° |
| 2026-04-28 11:08 | 44.39893 | 21.72957 | 36155 ft | 412 kts | 313° |
| 2026-04-28 11:08 | 44.43970 | 21.67330 | 36158 ft | 412 kts | 313° |
| 2026-04-28 11:09 | 44.48043 | 21.61695 | 36160 ft | 411 kts | 313° |
| 2026-04-28 11:09 | 44.52109 | 21.56059 | 36161 ft | 411 kts | 313° |
| 2026-04-28 11:10 | 44.56169 | 21.50418 | 36161 ft | 411 kts | 313° |
| 2026-04-28 11:10 | 44.60222 | 21.44776 | 36162 ft | 411 kts | 313° |
| 2026-04-28 11:11 | 44.64277 | 21.39128 | 36160 ft | 410 kts | 313° |
| 2026-04-28 11:11 | 44.68326 | 21.33478 | 36160 ft | 411 kts | 313° |
| 2026-04-28 11:12 | 44.72370 | 21.27807 | 36159 ft | 410 kts | 312° |
| 2026-04-28 11:12 | 44.76409 | 21.22138 | 36162 ft | 410 kts | 312° |
| 2026-04-28 11:13 | 44.80453 | 21.16447 | 36162 ft | 410 kts | 312° |
| 2026-04-28 11:13 | 44.84486 | 21.10763 | 36170 ft | 411 kts | 312° |
| 2026-04-28 11:14 | 44.88524 | 21.05063 | 36168 ft | 411 kts | 312° |
| 2026-04-28 11:14 | 44.92559 | 20.99358 | 36169 ft | 411 kts | 312° |
| 2026-04-28 11:15 | 44.96586 | 20.93642 | 36171 ft | 411 kts | 312° |
| 2026-04-28 11:15 | 45.00612 | 20.87920 | 36170 ft | 411 kts | 313° |
| 2026-04-28 11:16 | 45.04636 | 20.82193 | 36172 ft | 410 kts | 313° |
| 2026-04-28 11:16 | 45.08656 | 20.76457 | 36171 ft | 410 kts | 313° |
| 2026-04-28 11:17 | 45.12675 | 20.70715 | 36170 ft | 410 kts | 313° |
| 2026-04-28 11:17 | 45.16680 | 20.64965 | 36166 ft | 410 kts | 312° |
| 2026-04-28 11:18 | 45.20687 | 20.59212 | 36170 ft | 410 kts | 313° |
| 2026-04-28 11:18 | 45.24697 | 20.53451 | 36168 ft | 410 kts | 313° |
| 2026-04-28 11:19 | 45.28692 | 20.47685 | 36168 ft | 410 kts | 312° |
| 2026-04-28 11:19 | 45.32680 | 20.41909 | 36168 ft | 410 kts | 312° |
| 2026-04-28 11:20 | 45.36672 | 20.36129 | 36172 ft | 410 kts | 313° |
| 2026-04-28 11:20 | 45.40664 | 20.30339 | 36171 ft | 409 kts | 313° |
| 2026-04-28 11:21 | 45.44648 | 20.24543 | 36172 ft | 409 kts | 312° |
| 2026-04-28 11:21 | 45.48620 | 20.18738 | 36175 ft | 409 kts | 312° |
| 2026-04-28 11:22 | 45.52594 | 20.12934 | 36178 ft | 409 kts | 313° |
| 2026-04-28 11:22 | 45.56568 | 20.07127 | 36178 ft | 409 kts | 313° |
| 2026-04-28 11:23 | 45.60532 | 20.01313 | 36179 ft | 409 kts | 312° |
| 2026-04-28 11:23 | 45.64493 | 19.95489 | 36184 ft | 408 kts | 312° |
| 2026-04-28 11:24 | 45.68447 | 19.89666 | 36182 ft | 408 kts | 312° |
| 2026-04-28 11:24 | 45.72394 | 19.83827 | 36182 ft | 408 kts | 312° |
| 2026-04-28 11:25 | 45.76336 | 19.77989 | 36186 ft | 408 kts | 312° |
| 2026-04-28 11:25 | 45.79611 | 19.73142 | 36184 ft | 407 kts | 312° |
| 2026-04-28 11:26 | 45.83541 | 19.67302 | 36181 ft | 407 kts | 312° |
| 2026-04-28 11:26 | 45.87462 | 19.61458 | 36185 ft | 406 kts | 312° |
| 2026-04-28 11:27 | 45.91379 | 19.55622 | 36179 ft | 406 kts | 312° |
| 2026-04-28 11:27 | 45.95284 | 19.49769 | 36166 ft | 405 kts | 312° |
| 2026-04-28 11:28 | 45.99179 | 19.43925 | 36183 ft | 405 kts | 312° |
| 2026-04-28 11:28 | 46.03081 | 19.38071 | 36180 ft | 405 kts | 312° |
| 2026-04-28 11:29 | 46.07275 | 19.32667 | 36179 ft | 406 kts | 319° |
| 2026-04-28 11:29 | 46.11686 | 19.27604 | 36183 ft | 405 kts | 319° |
| 2026-04-28 11:30 | 46.16098 | 19.22536 | 36181 ft | 405 kts | 319° |
| 2026-04-28 11:30 | 46.22708 | 19.14942 | 36182 ft | 405 kts | 319° |
| 2026-04-28 11:31 | 46.27101 | 19.09859 | 36179 ft | 404 kts | 319° |
| 2026-04-28 11:31 | 46.31484 | 19.04764 | 36190 ft | 404 kts | 319° |
| 2026-04-28 11:32 | 46.35864 | 18.99674 | 36185 ft | 404 kts | 319° |
| 2026-04-28 11:32 | 46.40241 | 18.94590 | 36187 ft | 403 kts | 319° |
| 2026-04-28 11:33 | 46.44612 | 18.89500 | 36185 ft | 403 kts | 319° |
| 2026-04-28 11:33 | 46.48973 | 18.84401 | 36192 ft | 402 kts | 319° |
| 2026-04-28 11:34 | 46.53327 | 18.79303 | 36189 ft | 402 kts | 319° |
| 2026-04-28 11:34 | 46.57680 | 18.74213 | 36192 ft | 402 kts | 319° |
| 2026-04-28 11:35 | 46.62023 | 18.69111 | 36192 ft | 401 kts | 319° |
| 2026-04-28 11:35 | 46.66356 | 18.64011 | 36194 ft | 401 kts | 319° |
| 2026-04-28 11:36 | 46.70681 | 18.58892 | 36196 ft | 400 kts | 319° |
| 2026-04-28 11:36 | 46.74974 | 18.53816 | 36198 ft | 400 kts | 319° |
| 2026-04-28 11:37 | 46.79292 | 18.48710 | 36198 ft | 399 kts | 319° |
| 2026-04-28 11:37 | 46.83625 | 18.43555 | 36198 ft | 399 kts | 318° |
| 2026-04-28 11:38 | 46.87895 | 18.38479 | 36202 ft | 398 kts | 319° |
| 2026-04-28 11:38 | 46.92186 | 18.33362 | 36200 ft | 398 kts | 318° |
| 2026-04-28 11:39 | 46.96469 | 18.28236 | 36204 ft | 397 kts | 318° |
| 2026-04-28 11:39 | 47.00743 | 18.23112 | 36201 ft | 397 kts | 318° |
| 2026-04-28 11:40 | 47.05018 | 18.17988 | 36198 ft | 397 kts | 318° |
| 2026-04-28 11:40 | 47.09185 | 18.12707 | 36199 ft | 395 kts | 315° |
| 2026-04-28 11:41 | 47.13225 | 18.07233 | 36197 ft | 395 kts | 315° |
| 2026-04-28 11:41 | 47.17260 | 18.01763 | 36199 ft | 395 kts | 315° |
| 2026-04-28 11:42 | 47.21312 | 17.96337 | 36194 ft | 394 kts | 315° |
| 2026-04-28 11:42 | 47.25378 | 17.90918 | 36190 ft | 394 kts | 315° |
| 2026-04-28 11:43 | 47.29436 | 17.85497 | 36187 ft | 394 kts | 315° |
| 2026-04-28 11:43 | 47.33483 | 17.80066 | 36184 ft | 393 kts | 315° |
| 2026-04-28 11:44 | 47.37519 | 17.74624 | 36181 ft | 393 kts | 315° |
| 2026-04-28 11:44 | 47.41553 | 17.69179 | 36182 ft | 393 kts | 315° |
| 2026-04-28 11:45 | 47.45585 | 17.63738 | 36182 ft | 392 kts | 315° |
| 2026-04-28 11:45 | 47.49613 | 17.58289 | 36183 ft | 392 kts | 315° |
| 2026-04-28 11:46 | 47.53628 | 17.52836 | 36185 ft | 392 kts | 315° |
| 2026-04-28 11:46 | 47.57640 | 17.47377 | 36190 ft | 392 kts | 315° |
| 2026-04-28 11:47 | 47.61647 | 17.41918 | 36189 ft | 391 kts | 315° |
| 2026-04-28 11:47 | 47.65621 | 17.36400 | 36200 ft | 391 kts | 314° |
| 2026-04-28 11:48 | 47.69532 | 17.30804 | 36198 ft | 391 kts | 313° |
| 2026-04-28 11:48 | 47.73416 | 17.25241 | 36200 ft | 391 kts | 313° |
| 2026-04-28 11:49 | 47.77344 | 17.19647 | 36199 ft | 391 kts | 313° |
| 2026-04-28 11:49 | 47.81262 | 17.14061 | 36231 ft | 389 kts | 312° |
| 2026-04-28 11:50 | 47.84928 | 17.08238 | 36223 ft | 384 kts | 307° |
| 2026-04-28 11:50 | 47.88373 | 17.02175 | 36217 ft | 383 kts | 307° |
| 2026-04-28 11:51 | 47.91818 | 16.96105 | 36209 ft | 383 kts | 307° |
| 2026-04-28 11:51 | 47.95254 | 16.90038 | 36210 ft | 383 kts | 307° |
| 2026-04-28 11:52 | 47.98690 | 16.83959 | 36204 ft | 383 kts | 307° |
| 2026-04-28 11:52 | 48.02120 | 16.77876 | 36193 ft | 383 kts | 307° |
| 2026-04-28 11:53 | 48.05553 | 16.71781 | 36191 ft | 383 kts | 307° |
| 2026-04-28 11:53 | 48.08984 | 16.65669 | 36192 ft | 384 kts | 307° |
| 2026-04-28 11:54 | 48.12398 | 16.59528 | 36189 ft | 384 kts | 306° |
| 2026-04-28 11:54 | 48.15738 | 16.53301 | 36187 ft | 384 kts | 306° |
| 2026-04-28 11:55 | 48.19068 | 16.47040 | 36186 ft | 384 kts | 306° |
| 2026-04-28 11:55 | 48.22410 | 16.40774 | 36184 ft | 385 kts | 306° |
| 2026-04-28 11:56 | 48.25756 | 16.34500 | 36183 ft | 385 kts | 306° |
| 2026-04-28 11:56 | 48.29109 | 16.28217 | 36181 ft | 386 kts | 306° |
| 2026-04-28 11:57 | 48.32465 | 16.21912 | 36182 ft | 386 kts | 306° |
| 2026-04-28 11:57 | 48.35811 | 16.15593 | 36185 ft | 387 kts | 306° |
| 2026-04-28 11:58 | 48.39163 | 16.09256 | 36184 ft | 387 kts | 306° |
| 2026-04-28 11:58 | 48.42513 | 16.02900 | 36184 ft | 388 kts | 306° |
| 2026-04-28 11:59 | 48.45865 | 15.96527 | 36185 ft | 388 kts | 306° |
| 2026-04-28 11:59 | 48.49221 | 15.90145 | 36187 ft | 389 kts | 306° |
| 2026-04-28 12:00 | 48.52575 | 15.83750 | 36185 ft | 389 kts | 306° |
| 2026-04-28 12:00 | 48.55935 | 15.77330 | 36186 ft | 390 kts | 306° |
| 2026-04-28 12:01 | 48.59286 | 15.70897 | 36190 ft | 390 kts | 306° |
| 2026-04-28 12:01 | 48.62641 | 15.64445 | 36189 ft | 390 kts | 306° |
| 2026-04-28 12:02 | 48.65977 | 15.58028 | 36190 ft | 391 kts | 306° |
| 2026-04-28 12:02 | 48.69330 | 15.51555 | 36193 ft | 391 kts | 306° |
| 2026-04-28 12:03 | 48.72688 | 15.45054 | 36191 ft | 392 kts | 306° |
| 2026-04-28 12:03 | 48.76034 | 15.38535 | 36190 ft | 392 kts | 306° |
| 2026-04-28 12:04 | 48.79391 | 15.32007 | 36193 ft | 393 kts | 306° |
| 2026-04-28 12:04 | 48.82753 | 15.25469 | 36187 ft | 393 kts | 306° |
| 2026-04-28 12:05 | 48.86107 | 15.18906 | 36187 ft | 393 kts | 306° |
| 2026-04-28 12:05 | 48.89458 | 15.12329 | 36192 ft | 394 kts | 305° |
| 2026-04-28 12:06 | 48.92669 | 15.05575 | 36185 ft | 394 kts | 302° |
| 2026-04-28 12:06 | 48.95729 | 14.98666 | 36183 ft | 394 kts | 302° |
| 2026-04-28 12:07 | 48.98790 | 14.91729 | 36178 ft | 395 kts | 302° |
| 2026-04-28 12:07 | 49.01886 | 14.84810 | 36181 ft | 395 kts | 302° |
| 2026-04-28 12:08 | 49.04993 | 14.77881 | 36176 ft | 396 kts | 302° |
| 2026-04-28 12:08 | 49.08103 | 14.70941 | 36174 ft | 397 kts | 302° |
| 2026-04-28 12:09 | 49.11211 | 14.63976 | 36176 ft | 397 kts | 302° |
| 2026-04-28 12:09 | 49.14289 | 14.57042 | 36175 ft | 398 kts | 302° |
| 2026-04-28 12:10 | 49.17386 | 14.50042 | 36174 ft | 398 kts | 302° |
| 2026-04-28 12:10 | 49.20485 | 14.43023 | 36176 ft | 398 kts | 302° |
| 2026-04-28 12:11 | 49.23585 | 14.35994 | 36175 ft | 399 kts | 302° |
| 2026-04-28 12:11 | 49.26682 | 14.28947 | 36175 ft | 399 kts | 302° |
| 2026-04-28 12:12 | 49.29778 | 14.21887 | 36178 ft | 400 kts | 302° |
| 2026-04-28 12:12 | 49.32372 | 14.15955 | 36181 ft | 400 kts | 302° |
| 2026-04-28 12:13 | 49.35465 | 14.08866 | 36181 ft | 400 kts | 302° |
| 2026-04-28 12:13 | 49.38564 | 14.01757 | 36179 ft | 401 kts | 302° |
| 2026-04-28 12:14 | 49.41636 | 13.94686 | 36182 ft | 401 kts | 302° |
| 2026-04-28 12:14 | 49.44724 | 13.87544 | 36182 ft | 402 kts | 302° |
| 2026-04-28 12:15 | 49.47814 | 13.80382 | 36181 ft | 402 kts | 302° |
| 2026-04-28 12:15 | 49.50896 | 13.73212 | 36180 ft | 402 kts | 301° |
| 2026-04-28 12:16 | 49.53984 | 13.66024 | 36184 ft | 403 kts | 302° |
| 2026-04-28 12:16 | 49.57073 | 13.58832 | 36181 ft | 403 kts | 301° |
| 2026-04-28 12:17 | 49.60155 | 13.51612 | 36185 ft | 403 kts | 301° |
| 2026-04-28 12:17 | 49.63233 | 13.44388 | 36184 ft | 403 kts | 301° |
| 2026-04-28 12:18 | 49.66309 | 13.37142 | 36186 ft | 404 kts | 301° |
| 2026-04-28 12:18 | 49.69384 | 13.29886 | 36183 ft | 404 kts | 301° |
| 2026-04-28 12:19 | 49.72459 | 13.22609 | 36183 ft | 404 kts | 301° |
| 2026-04-28 12:19 | 49.75525 | 13.15317 | 36183 ft | 405 kts | 301° |
| 2026-04-28 12:20 | 49.78590 | 13.08004 | 36183 ft | 405 kts | 301° |
| 2026-04-28 12:20 | 49.81652 | 13.00693 | 36187 ft | 405 kts | 301° |
| 2026-04-28 12:21 | 49.84719 | 12.93366 | 36190 ft | 406 kts | 301° |
| 2026-04-28 12:21 | 49.87784 | 12.86019 | 36193 ft | 406 kts | 301° |
| 2026-04-28 12:22 | 49.90838 | 12.78652 | 36193 ft | 406 kts | 301° |
| 2026-04-28 12:22 | 49.93896 | 12.71278 | 36195 ft | 407 kts | 301° |
| 2026-04-28 12:23 | 49.96938 | 12.63939 | 36192 ft | 407 kts | 301° |
| 2026-04-28 12:23 | 49.99991 | 12.56534 | 36190 ft | 407 kts | 301° |
| 2026-04-28 12:24 | 50.03032 | 12.49106 | 36190 ft | 407 kts | 300° |
| 2026-04-28 12:24 | 50.06034 | 12.41625 | 36185 ft | 407 kts | 296° |
| 2026-04-28 12:25 | 50.08075 | 12.33454 | 36184 ft | 405 kts | 288° |
| 2026-04-28 12:25 | 50.09889 | 12.25136 | 36188 ft | 406 kts | 288° |
| 2026-04-28 12:26 | 50.11703 | 12.16801 | 36193 ft | 406 kts | 288° |
| 2026-04-28 12:26 | 50.13507 | 12.08459 | 36199 ft | 407 kts | 288° |
| 2026-04-28 12:27 | 50.15313 | 12.00094 | 36204 ft | 407 kts | 288° |
| 2026-04-28 12:27 | 50.17106 | 11.91722 | 36206 ft | 407 kts | 288° |
| 2026-04-28 12:28 | 50.18897 | 11.83331 | 36208 ft | 408 kts | 288° |
| 2026-04-28 12:28 | 50.20694 | 11.74926 | 36208 ft | 408 kts | 287° |
| 2026-04-28 12:29 | 50.23365 | 11.62298 | 36206 ft | 409 kts | 287° |
| 2026-04-28 12:30 | 50.25144 | 11.53854 | 36203 ft | 409 kts | 287° |
| 2026-04-28 12:30 | 50.26914 | 11.45414 | 36201 ft | 409 kts | 287° |
| 2026-04-28 12:31 | 50.28682 | 11.36952 | 36200 ft | 410 kts | 287° |
| 2026-04-28 12:31 | 50.30452 | 11.28473 | 36199 ft | 410 kts | 287° |
| 2026-04-28 12:32 | 50.32212 | 11.19993 | 36195 ft | 410 kts | 287° |
| 2026-04-28 12:32 | 50.33950 | 11.11546 | 36199 ft | 411 kts | 287° |
| 2026-04-28 12:33 | 50.35690 | 11.03032 | 36197 ft | 411 kts | 287° |
| 2026-04-28 12:33 | 50.37432 | 10.94507 | 36197 ft | 411 kts | 287° |
| 2026-04-28 12:34 | 50.39177 | 10.85969 | 36197 ft | 411 kts | 287° |
| 2026-04-28 12:34 | 50.40914 | 10.77429 | 36197 ft | 412 kts | 287° |
| 2026-04-28 12:35 | 50.42645 | 10.68860 | 36195 ft | 412 kts | 287° |
| 2026-04-28 12:35 | 50.44363 | 10.60279 | 36194 ft | 413 kts | 287° |
| 2026-04-28 12:36 | 50.46078 | 10.51686 | 36194 ft | 413 kts | 286° |
| 2026-04-28 12:36 | 50.47794 | 10.43077 | 36194 ft | 413 kts | 287° |
| 2026-04-28 12:37 | 50.49532 | 10.34471 | 36196 ft | 414 kts | 287° |
| 2026-04-28 12:37 | 50.51268 | 10.25845 | 36194 ft | 414 kts | 287° |
| 2026-04-28 12:38 | 50.52992 | 10.17209 | 36194 ft | 415 kts | 287° |
| 2026-04-28 12:38 | 50.54716 | 10.08549 | 36197 ft | 415 kts | 286° |
| 2026-04-28 12:39 | 50.56427 | 9.99874 | 36195 ft | 415 kts | 286° |
| 2026-04-28 12:39 | 50.58125 | 9.91183 | 36195 ft | 416 kts | 286° |
| 2026-04-28 12:40 | 50.59815 | 9.82544 | 36191 ft | 416 kts | 286° |
| 2026-04-28 12:40 | 50.61515 | 9.73827 | 36188 ft | 417 kts | 286° |
| 2026-04-28 12:41 | 50.63209 | 9.65101 | 36193 ft | 417 kts | 286° |
| 2026-04-28 12:41 | 50.64896 | 9.56352 | 36194 ft | 418 kts | 286° |
| 2026-04-28 12:42 | 50.66586 | 9.47581 | 36191 ft | 418 kts | 286° |
| 2026-04-28 12:42 | 50.68268 | 9.38799 | 36191 ft | 419 kts | 286° |
| 2026-04-28 12:43 | 50.69938 | 9.29996 | 36195 ft | 419 kts | 286° |
| 2026-04-28 12:43 | 50.71607 | 9.21188 | 36193 ft | 420 kts | 286° |
| 2026-04-28 12:44 | 50.73218 | 9.12321 | 36193 ft | 420 kts | 284° |
| 2026-04-28 12:44 | 50.74749 | 9.03424 | 36194 ft | 421 kts | 284° |
| 2026-04-28 12:45 | 50.76280 | 8.94488 | 36196 ft | 421 kts | 284° |
| 2026-04-28 12:45 | 50.77822 | 8.85551 | 36193 ft | 422 kts | 284° |
| 2026-04-28 12:46 | 50.79365 | 8.76600 | 36196 ft | 422 kts | 284° |
| 2026-04-28 12:46 | 50.80903 | 8.67633 | 36194 ft | 423 kts | 284° |
| 2026-04-28 12:47 | 50.82428 | 8.58652 | 36192 ft | 423 kts | 284° |
| 2026-04-28 12:47 | 50.83952 | 8.49655 | 36191 ft | 424 kts | 284° |
| 2026-04-28 12:48 | 50.85473 | 8.40651 | 36195 ft | 424 kts | 284° |
| 2026-04-28 12:48 | 50.86983 | 8.31633 | 36186 ft | 424 kts | 284° |
| 2026-04-28 12:49 | 50.88484 | 8.22597 | 36181 ft | 424 kts | 284° |
| 2026-04-28 12:49 | 50.89983 | 8.13558 | 36191 ft | 425 kts | 284° |
| 2026-04-28 12:50 | 50.91482 | 8.04499 | 36188 ft | 425 kts | 284° |
| 2026-04-28 12:50 | 50.92938 | 7.95418 | 36181 ft | 426 kts | 282° |
| 2026-04-28 12:51 | 50.94168 | 7.86224 | 36175 ft | 426 kts | 281° |
| 2026-04-28 12:51 | 50.95292 | 7.76988 | 36178 ft | 427 kts | 280° |
| 2026-04-28 12:52 | 50.96431 | 7.67752 | 36173 ft | 427 kts | 281° |
| 2026-04-28 12:52 | 50.97512 | 7.59208 | 36172 ft | 428 kts | 281° |
| 2026-04-28 12:53 | 50.98694 | 7.49955 | 36175 ft | 428 kts | 281° |
| 2026-04-28 12:53 | 50.99859 | 7.40680 | 36167 ft | 429 kts | 281° |
| 2026-04-28 12:54 | 51.01009 | 7.31392 | 36163 ft | 429 kts | 281° |
| 2026-04-28 12:54 | 51.02157 | 7.22087 | 36162 ft | 429 kts | 280° |
| 2026-04-28 12:55 | 51.03288 | 7.12838 | 36161 ft | 430 kts | 280° |
| 2026-04-28 12:55 | 51.04421 | 7.03515 | 36166 ft | 430 kts | 280° |
| 2026-04-28 12:56 | 51.05553 | 6.94178 | 36164 ft | 430 kts | 280° |
| 2026-04-28 12:56 | 51.06675 | 6.84823 | 36192 ft | 431 kts | 280° |
| 2026-04-28 12:57 | 51.07785 | 6.75466 | 36194 ft | 431 kts | 280° |
| 2026-04-28 12:57 | 51.08895 | 6.66086 | 36186 ft | 431 kts | 280° |
| 2026-04-28 12:58 | 51.10001 | 6.56708 | 36185 ft | 432 kts | 280° |
| 2026-04-28 12:58 | 51.11099 | 6.47308 | 36184 ft | 432 kts | 280° |
| 2026-04-28 12:59 | 51.12188 | 6.37894 | 36178 ft | 433 kts | 279° |
| 2026-04-28 12:59 | 51.13091 | 6.30001 | 36180 ft | 433 kts | 279° |
| 2026-04-28 13:00 | 51.14168 | 6.20557 | 36178 ft | 434 kts | 279° |
| 2026-04-28 13:00 | 51.15239 | 6.11093 | 36176 ft | 435 kts | 279° |
| 2026-04-28 13:01 | 51.16305 | 6.01607 | 36170 ft | 436 kts | 279° |
| 2026-04-28 13:01 | 51.17366 | 5.92087 | 36174 ft | 437 kts | 279° |
| 2026-04-28 13:02 | 51.18840 | 5.82700 | 36172 ft | 438 kts | 292° |
| 2026-04-28 13:02 | 51.21801 | 5.74200 | 36175 ft | 440 kts | 301° |
| 2026-04-28 13:03 | 51.24939 | 5.65892 | 36187 ft | 441 kts | 300° |
| 2026-04-28 13:03 | 51.28089 | 5.57489 | 36192 ft | 442 kts | 300° |
| 2026-04-28 13:04 | 51.31241 | 5.49050 | 36194 ft | 443 kts | 300° |
| 2026-04-28 13:04 | 51.33309 | 5.43515 | 36195 ft | 443 kts | 300° |
| 2026-04-28 13:05 | 51.36056 | 5.35097 | 36193 ft | 445 kts | 300° |
| 2026-04-28 13:05 | 51.39337 | 5.26695 | 36199 ft | 445 kts | 303° |
| 2026-04-28 13:06 | 51.42675 | 5.18330 | 36207 ft | 446 kts | 301° |
| 2026-04-28 13:06 | 51.45877 | 5.09815 | 36198 ft | 447 kts | 300° |
| 2026-04-28 13:07 | 51.49000 | 5.01188 | 36205 ft | 447 kts | 300° |
| 2026-04-28 13:07 | 51.52126 | 4.92538 | 36206 ft | 448 kts | 300° |
| 2026-04-28 13:08 | 51.55282 | 4.83893 | 36200 ft | 449 kts | 300° |
| 2026-04-28 13:08 | 51.57562 | 4.74575 | 36200 ft | 450 kts | 282° |
| 2026-04-28 13:09 | 51.58631 | 4.64662 | 36194 ft | 451 kts | 279° |
| 2026-04-28 13:09 | 51.59679 | 4.54724 | 36177 ft | 452 kts | 279° |
| 2026-04-28 13:10 | 51.60730 | 4.44741 | 36180 ft | 453 kts | 279° |
| 2026-04-28 13:10 | 51.61766 | 4.34742 | 36178 ft | 454 kts | 279° |
| 2026-04-28 13:11 | 51.62790 | 4.24717 | 36182 ft | 455 kts | 279° |
| 2026-04-28 13:11 | 51.63813 | 4.14665 | 36188 ft | 455 kts | 279° |
| 2026-04-28 13:12 | 51.64833 | 4.04593 | 36200 ft | 456 kts | 279° |
| 2026-04-28 13:12 | 51.65847 | 3.94489 | 36203 ft | 457 kts | 279° |
| 2026-04-28 13:13 | 51.66854 | 3.84360 | 36209 ft | 458 kts | 279° |
| 2026-04-28 13:13 | 51.67855 | 3.74213 | 36220 ft | 460 kts | 279° |
| 2026-04-28 13:14 | 51.68840 | 3.64092 | 36215 ft | 461 kts | 279° |
| 2026-04-28 13:14 | 51.69825 | 3.53803 | 36192 ft | 461 kts | 279° |
| 2026-04-28 13:14 | 51.70308 | 3.48752 | 35639 ft | 462 kts | 279° |
| 2026-04-28 13:15 | 51.70804 | 3.43564 | 35315 ft | 463 kts | 279° |
| 2026-04-28 13:15 | 51.71779 | 3.33341 | 35251 ft | 466 kts | 279° |
| 2026-04-28 13:16 | 51.72748 | 3.22971 | 35254 ft | 468 kts | 278° |
| 2026-04-28 13:16 | 51.72892 | 3.12509 | 35258 ft | 468 kts | 261° |
| 2026-04-28 13:17 | 51.71973 | 3.02090 | 35258 ft | 469 kts | 261° |
| 2026-04-28 13:17 | 51.71063 | 2.91661 | 35259 ft | 470 kts | 261° |
| 2026-04-28 13:18 | 51.70152 | 2.81226 | 35263 ft | 470 kts | 261° |
| 2026-04-28 13:18 | 51.69234 | 2.70862 | 35254 ft | 470 kts | 261° |
| 2026-04-28 13:19 | 51.68302 | 2.60415 | 35263 ft | 471 kts | 261° |
| 2026-04-28 13:19 | 51.67355 | 2.49968 | 35266 ft | 472 kts | 261° |
| 2026-04-28 13:20 | 51.66400 | 2.39513 | 35267 ft | 472 kts | 261° |
| 2026-04-28 13:20 | 51.65439 | 2.29058 | 35267 ft | 472 kts | 261° |
| 2026-04-28 13:21 | 51.64461 | 2.18602 | 35276 ft | 473 kts | 261° |
| 2026-04-28 13:21 | 51.63478 | 2.08135 | 35278 ft | 473 kts | 261° |
| 2026-04-28 13:21 | 51.63264 | 2.02864 | 35278 ft | 473 kts | 274° |
| 2026-04-28 13:22 | 51.63631 | 1.97595 | 35285 ft | 474 kts | 277° |
| 2026-04-28 13:22 | 51.64474 | 1.87067 | 35289 ft | 474 kts | 278° |
| 2026-04-28 13:23 | 51.65327 | 1.76537 | 35294 ft | 475 kts | 278° |
| 2026-04-28 13:23 | 51.66158 | 1.65977 | 35297 ft | 476 kts | 278° |
| 2026-04-28 13:24 | 51.66984 | 1.55388 | 35298 ft | 476 kts | 278° |
| 2026-04-28 13:24 | 51.67802 | 1.44811 | 35299 ft | 476 kts | 278° |
| 2026-04-28 13:25 | 51.68607 | 1.34214 | 35302 ft | 477 kts | 278° |
| 2026-04-28 13:25 | 51.69399 | 1.23604 | 35300 ft | 477 kts | 278° |
| 2026-04-28 13:26 | 51.70185 | 1.12986 | 35294 ft | 477 kts | 278° |
| 2026-04-28 13:26 | 51.70964 | 1.02367 | 35187 ft | 476 kts | 278° |
| 2026-04-28 13:26 | 51.71348 | 0.97122 | 34797 ft | 477 kts | 278° |
| 2026-04-28 13:27 | 51.71739 | 0.91735 | 34391 ft | 479 kts | 278° |
| 2026-04-28 13:27 | 51.72118 | 0.86462 | 33958 ft | 481 kts | 278° |
| 2026-04-28 13:27 | 51.72491 | 0.81220 | 33511 ft | 481 kts | 278° |
| 2026-04-28 13:27 | 51.72870 | 0.75855 | 33057 ft | 480 kts | 278° |
| 2026-04-28 13:28 | 51.73245 | 0.70511 | 32614 ft | 479 kts | 278° |
| 2026-04-28 13:28 | 51.73616 | 0.65174 | 32175 ft | 478 kts | 278° |
| 2026-04-28 13:28 | 51.73985 | 0.59848 | 31749 ft | 477 kts | 278° |
| 2026-04-28 13:28 | 51.74352 | 0.54548 | 31326 ft | 475 kts | 278° |
| 2026-04-28 13:29 | 51.74717 | 0.49247 | 30936 ft | 474 kts | 279° |
| 2026-04-28 13:29 | 51.75076 | 0.43967 | 30503 ft | 473 kts | 279° |
| 2026-04-28 13:29 | 51.75431 | 0.38703 | 30044 ft | 472 kts | 279° |
| 2026-04-28 13:29 | 51.75783 | 0.33441 | 29496 ft | 469 kts | 279° |
| 2026-04-28 13:30 | 51.76129 | 0.28223 | 28964 ft | 466 kts | 279° |
| 2026-04-28 13:30 | 51.76469 | 0.23045 | 28443 ft | 463 kts | 279° |
| 2026-04-28 13:30 | 51.76803 | 0.17899 | 27933 ft | 459 kts | 279° |
| 2026-04-28 13:30 | 51.77135 | 0.12787 | 27430 ft | 456 kts | 279° |
| 2026-04-28 13:31 | 51.77784 | 0.02681 | 26450 ft | 449 kts | 279° |
| 2026-04-28 13:31 | 51.78101 | -0.02309 | 26067 ft | 446 kts | 279° |
| 2026-04-28 13:31 | 51.78416 | -0.07290 | 25606 ft | 443 kts | 279° |
| 2026-04-28 13:32 | 51.78727 | -0.12218 | 25157 ft | 440 kts | 279° |
| 2026-04-28 13:32 | 51.79034 | -0.17120 | 24706 ft | 437 kts | 279° |
| 2026-04-28 13:32 | 51.79337 | -0.21993 | 24274 ft | 434 kts | 279° |
| 2026-04-28 13:32 | 51.79635 | -0.26810 | 23807 ft | 430 kts | 279° |
| 2026-04-28 13:33 | 51.79939 | -0.31593 | 23155 ft | 425 kts | 282° |
| 2026-04-28 13:33 | 51.80629 | -0.36162 | 22671 ft | 414 kts | 296° |
| 2026-04-28 13:33 | 51.81867 | -0.40298 | 22184 ft | 402 kts | 309° |
| 2026-04-28 13:33 | 51.83536 | -0.43825 | 21680 ft | 390 kts | 321° |
| 2026-04-28 13:34 | 51.85541 | -0.46674 | 21225 ft | 377 kts | 333° |
| 2026-04-28 13:34 | 51.87739 | -0.48894 | 20747 ft | 371 kts | 337° |
| 2026-04-28 13:34 | 51.89948 | -0.51034 | 20279 ft | 369 kts | 337° |
| 2026-04-28 13:34 | 51.92141 | -0.53174 | 19833 ft | 367 kts | 336° |
| 2026-04-28 13:35 | 51.94320 | -0.55311 | 19403 ft | 365 kts | 336° |
| 2026-04-28 13:35 | 51.96490 | -0.57439 | 18997 ft | 363 kts | 336° |
| 2026-04-28 13:35 | 51.98648 | -0.59551 | 18563 ft | 362 kts | 336° |
| 2026-04-28 13:35 | 52.00798 | -0.61649 | 18097 ft | 360 kts | 336° |
| 2026-04-28 13:36 | 52.02939 | -0.63740 | 17643 ft | 358 kts | 336° |
| 2026-04-28 13:36 | 52.05059 | -0.65820 | 17334 ft | 356 kts | 336° |
| 2026-04-28 13:36 | 52.07171 | -0.67895 | 17053 ft | 353 kts | 336° |
| 2026-04-28 13:36 | 52.09271 | -0.69956 | 16605 ft | 352 kts | 336° |
| 2026-04-28 13:37 | 52.11363 | -0.72010 | 16181 ft | 350 kts | 335° |
| 2026-04-28 13:37 | 52.13439 | -0.74051 | 15766 ft | 348 kts | 335° |
| 2026-04-28 13:37 | 52.15505 | -0.76094 | 15370 ft | 346 kts | 335° |
| 2026-04-28 13:37 | 52.17560 | -0.78133 | 14979 ft | 345 kts | 335° |
| 2026-04-28 13:38 | 52.19603 | -0.80162 | 14606 ft | 343 kts | 335° |
| 2026-04-28 13:38 | 52.21623 | -0.82217 | 14217 ft | 344 kts | 330° |
| 2026-04-28 13:38 | 52.23386 | -0.84808 | 13819 ft | 350 kts | 316° |
| 2026-04-28 13:38 | 52.24786 | -0.88140 | 13405 ft | 354 kts | 301° |
| 2026-04-28 13:39 | 52.25653 | -0.91908 | 12997 ft | 357 kts | 286° |
| 2026-04-28 13:39 | 52.26195 | -0.95854 | 12613 ft | 355 kts | 285° |
| 2026-04-28 13:39 | 52.26732 | -0.99781 | 12356 ft | 354 kts | 285° |
| 2026-04-28 13:39 | 52.27267 | -1.03688 | 12369 ft | 354 kts | 285° |
| 2026-04-28 13:40 | 52.27804 | -1.07616 | 12375 ft | 355 kts | 285° |
| 2026-04-28 13:40 | 52.28340 | -1.11549 | 12375 ft | 355 kts | 285° |
| 2026-04-28 13:40 | 52.28877 | -1.15486 | 12382 ft | 355 kts | 285° |
| 2026-04-28 13:40 | 52.29413 | -1.19408 | 12252 ft | 352 kts | 285° |
| 2026-04-28 13:41 | 52.29942 | -1.23304 | 11839 ft | 351 kts | 285° |
| 2026-04-28 13:41 | 52.30464 | -1.27184 | 11511 ft | 346 kts | 284° |
| 2026-04-28 13:41 | 52.30970 | -1.30966 | 11388 ft | 336 kts | 284° |
| 2026-04-28 13:41 | 52.31454 | -1.34584 | 11236 ft | 326 kts | 285° |
| 2026-04-28 13:42 | 52.31937 | -1.38184 | 10962 ft | 322 kts | 284° |
| 2026-04-28 13:42 | 52.32414 | -1.41750 | 10631 ft | 320 kts | 284° |
| 2026-04-28 13:42 | 52.32884 | -1.45297 | 10322 ft | 318 kts | 284° |
| 2026-04-28 13:42 | 52.33354 | -1.48824 | 9955 ft | 317 kts | 284° |
| 2026-04-28 13:43 | 52.33819 | -1.52339 | 9579 ft | 315 kts | 284° |
| 2026-04-28 13:43 | 52.34279 | -1.55830 | 9242 ft | 313 kts | 284° |
| 2026-04-28 13:43 | 52.34735 | -1.59297 | 8884 ft | 311 kts | 284° |
| 2026-04-28 13:43 | 52.35232 | -1.62723 | 8504 ft | 308 kts | 289° |
| 2026-04-28 13:44 | 52.35872 | -1.66052 | 8135 ft | 306 kts | 290° |
| 2026-04-28 13:44 | 52.36537 | -1.69352 | 7757 ft | 304 kts | 290° |
| 2026-04-28 13:44 | 52.37203 | -1.72623 | 7449 ft | 301 kts | 290° |
| 2026-04-28 13:44 | 52.37655 | -1.74814 | 7393 ft | 301 kts | 290° |
| 2026-04-28 13:45 | 52.38326 | -1.78063 | 7412 ft | 302 kts | 290° |
| 2026-04-28 13:45 | 52.38993 | -1.81306 | 7196 ft | 299 kts | 290° |
| 2026-04-28 13:45 | 52.39658 | -1.84523 | 6992 ft | 298 kts | 290° |
| 2026-04-28 13:45 | 52.40451 | -1.87646 | 6974 ft | 296 kts | 306° |
| 2026-04-28 13:46 | 52.41797 | -1.90005 | 6608 ft | 286 kts | 327° |
| 2026-04-28 13:46 | 52.43405 | -1.91896 | 6182 ft | 284 kts | 330° |
| 2026-04-28 13:46 | 52.45029 | -1.93717 | 5816 ft | 281 kts | 330° |
| 2026-04-28 13:46 | 52.46630 | -1.95511 | 5549 ft | 274 kts | 330° |
| 2026-04-28 13:47 | 52.48147 | -1.97223 | 5417 ft | 263 kts | 330° |
| 2026-04-28 13:47 | 52.49633 | -1.98918 | 5283 ft | 252 kts | 330° |
| 2026-04-28 13:47 | 52.51017 | -2.00511 | 5153 ft | 241 kts | 330° |
| 2026-04-28 13:47 | 52.52368 | -2.02079 | 4929 ft | 236 kts | 330° |
| 2026-04-28 13:48 | 52.53699 | -2.03623 | 4636 ft | 233 kts | 330° |
| 2026-04-28 13:48 | 52.55018 | -2.05153 | 4362 ft | 231 kts | 330° |
| 2026-04-28 13:48 | 52.56416 | -2.06278 | 4096 ft | 217 kts | 358° |
| 2026-04-28 13:48 | 52.57832 | -2.05958 | 4016 ft | 203 kts | 33° |
| 2026-04-28 13:49 | 52.58869 | -2.04453 | 4021 ft | 199 kts | 53° |
| 2026-04-28 13:49 | 52.59726 | -2.02670 | 4025 ft | 199 kts | 55° |
| 2026-04-28 13:49 | 52.60562 | -2.00853 | 4015 ft | 199 kts | 55° |
| 2026-04-28 13:49 | 52.61392 | -1.99026 | 4022 ft | 199 kts | 55° |
| 2026-04-28 13:50 | 52.62208 | -1.97212 | 4020 ft | 198 kts | 56° |
| 2026-04-28 13:50 | 52.63025 | -1.95389 | 4016 ft | 198 kts | 55° |
| 2026-04-28 13:50 | 52.63835 | -1.93562 | 3998 ft | 198 kts | 56° |
| 2026-04-28 13:50 | 52.64644 | -1.91732 | 4001 ft | 198 kts | 59° |
| 2026-04-28 13:51 | 52.64994 | -1.89591 | 3984 ft | 197 kts | 92° |
| 2026-04-28 13:51 | 52.64477 | -1.87504 | 3747 ft | 205 kts | 126° |
| 2026-04-28 13:51 | 52.63218 | -1.86306 | 3480 ft | 221 kts | 165° |
| 2026-04-28 13:51 | 52.61677 | -1.86125 | 3286 ft | 220 kts | 171° |
| 2026-04-28 13:52 | 52.60178 | -1.85949 | 3173 ft | 212 kts | 170° |
| 2026-04-28 13:52 | 52.58722 | -1.85774 | 3047 ft | 208 kts | 170° |
| 2026-04-28 13:52 | 52.57310 | -1.85606 | 2831 ft | 198 kts | 170° |
| 2026-04-28 13:52 | 52.55985 | -1.85442 | 2588 ft | 183 kts | 166° |
| 2026-04-28 13:53 | 52.54828 | -1.84910 | 2389 ft | 166 kts | 148° |
| 2026-04-28 13:53 | 52.53830 | -1.84060 | 2177 ft | 158 kts | 142° |
| 2026-04-28 13:53 | 52.52919 | -1.83139 | 1973 ft | 151 kts | 140° |
| 2026-04-28 13:53 | 52.52049 | -1.82206 | 1772 ft | 148 kts | 137° |
| 2026-04-28 13:54 | 52.51211 | -1.81288 | 1580 ft | 143 kts | 137° |
| 2026-04-28 13:54 | 52.50392 | -1.80380 | 1379 ft | 141 kts | 136° |
| 2026-04-28 13:54 | 52.49580 | -1.79481 | 1157 ft | 140 kts | 137° |
| 2026-04-28 13:54 | 52.48775 | -1.78597 | 954 ft | 140 kts | 138° |
| 2026-04-28 13:55 | 52.47959 | -1.77692 | 735 ft | 142 kts | 137° |
| 2026-04-28 13:55 | 52.47150 | -1.76769 | 533 ft | 142 kts | 139° |
| 2026-04-28 13:55 | 52.46328 | -1.75864 | 336 ft | 141 kts | 136° |
| 2026-04-28 13:55 | 52.45602 | -1.75032 | 323 ft | 104 kts | 147° |
| 2026-04-28 13:56 | 52.45141 | -1.74521 | 329 ft | 55 kts | 146° |
| 2026-04-28 13:56 | 52.44957 | -1.74315 | 325 ft | 13 kts | 127° |
| 2026-04-28 13:56 | 52.44956 | -1.74178 | 325 ft | 8 kts | 78° |
| 2026-04-28 13:56 | 52.44974 | -1.74066 | 320 ft | 8 kts | 75° |
| 2026-04-28 13:57 | 52.44983 | -1.74012 | 318 ft | 2 kts | 76° |
| 2026-04-28 13:57 | 52.44987 | -1.73983 | 320 ft | 4 kts | 76° |
| 2026-04-28 13:57 | 52.45000 | -1.73928 | 321 ft | 9 kts | 66° |
| 2026-04-28 13:57 | 52.45029 | -1.73845 | 322 ft | 10 kts | 57° |
| 2026-04-28 13:58 | 52.45077 | -1.73747 | 323 ft | 11 kts | 46° |
| 2026-04-28 13:58 | 52.45132 | -1.73644 | 323 ft | 13 kts | 54° |
| 2026-04-28 13:58 | 52.45184 | -1.73520 | 323 ft | 13 kts | 56° |
| 2026-04-28 13:58 | 52.45210 | -1.73453 | 323 ft | 3 kts | 71° |
| 2026-04-28 13:59 | 52.45202 | -1.73433 | 323 ft | 2 kts | 127° |
| 2026-04-28 13:59 | 52.45189 | -1.73414 | 323 ft | 3 kts | 140° |
| 2026-04-28 13:59 | 52.45176 | -1.73397 | 323 ft | 2 kts | 141° |
| 2026-04-28 13:59 | 52.45169 | -1.73387 | 323 ft | 1 kts | 141° |
| 2026-04-28 14:00 | 52.45166 | -1.73383 | 323 ft | 0 kts | 141° |
| 2026-04-28 14:00 | 52.45163 | -1.73379 | 323 ft | 0 kts | 141° |
| 2026-04-28 14:00 | 52.45162 | -1.73378 | 323 ft | 0 kts | 141° |